Time;durP1;ratioP1;P1;durP2;ratioP2;P2;SDS_P1;SDS_P2;PMS_P1;PMS_P2;Temp;Humidity;BMP_temperature;BMP_pressure;BME280_temperature;BME280_humidity;BME280_pressure;Samples;Min_cycle;Max_cycle;Signal;HPM_P1;HPM_P2
2022/04/15 00:00:15;;;;;;;25.10;13.50;;;;;;;3.12;60.60;99138.88;105080;1271;61283;-26
2022/04/15 00:02:45;;;;;;;32.30;13.50;;;;;;;3.16;60.40;99140.77;104868;1271;61999;-26
2022/04/15 00:05:34;;;;;;;33.40;14.70;;;;;;;3.15;60.77;99142.72;105123;1271;73823;-26
2022/04/15 00:08:04;;;;;;;31.20;12.40;;;;;;;3.11;60.59;99139.60;104860;1271;76501;-28
2022/04/15 00:10:53;;;;;;;27.40;11.30;;;;;;;3.20;61.38;99137.84;104552;1271;393084;-26
2022/04/15 00:13:24;;;;;;;21.70;11.50;;;;;;;3.36;60.86;99138.08;105290;1271;61127;-27
2022/04/15 00:15:53;;;;;;;26.60;12.20;;;;;;;3.49;59.82;99139.84;105153;1271;62060;-26
2022/04/15 00:18:41;;;;;;;21.20;10.20;;;;;;;3.51;60.01;99138.86;104914;1271;76983;-27
2022/04/15 00:21:10;;;;;;;26.70;11.10;;;;;;;3.45;60.51;99136.61;104976;1271;75998;-26
2022/04/15 00:23:39;;;;;;;27.70;12.70;;;;;;;3.25;61.33;99134.13;105042;1269;74379;-28
2022/04/15 00:26:14;;;;;;;30.10;13.10;;;;;;;3.00;62.24;99133.67;104993;1271;61491;-29
2022/04/15 00:28:43;;;;;;;23.50;12.40;;;;;;;2.78;63.09;99130.06;105052;1271;61135;-29
2022/04/15 00:31:12;;;;;;;28.60;14.30;;;;;;;2.63;63.94;99125.82;105093;1271;75736;-28
2022/04/15 00:34:03;;;;;;;40.20;16.40;;;;;;;2.47;64.70;99126.04;105081;1271;75759;-26
2022/04/15 00:36:36;;;;;;;28.90;13.40;;;;;;;2.34;65.31;99128.52;105041;1271;74610;-28
2022/04/15 00:39:05;;;;;;;31.30;14.50;;;;;;;2.22;66.16;99127.86;105306;1271;61984;-28
2022/04/15 00:41:34;;;;;;;32.40;13.70;;;;;;;2.14;66.78;99119.52;104867;1271;61124;-28
2022/04/15 00:44:06;;;;;;;30.80;15.20;;;;;;;2.04;67.21;99119.93;105002;1271;75493;-29
2022/04/15 00:46:35;;;;;;;28.30;9.60;;;;;;;2.00;67.80;99120.29;105040;1271;76068;-29
2022/04/15 00:49:03;;;;;;;34.60;13.80;;;;;;;2.56;67.32;99120.65;105061;1271;74439;-27
2022/04/15 00:51:37;;;;;;;34.10;13.80;;;;;;;3.22;65.52;99120.92;104904;1271;61157;-27
2022/04/15 00:54:07;;;;;;;31.30;13.80;;;;;;;3.34;64.56;99118.96;104899;1271;61130;-27
2022/04/15 00:56:36;;;;;;;37.80;14.20;;;;;;;3.25;64.26;99112.71;105082;1271;75422;-27
2022/04/15 00:59:24;;;;;;;34.60;12.90;;;;;;;3.06;64.60;99108.83;105082;1271;77442;-27
2022/04/15 01:01:53;;;;;;;34.10;16.20;;;;;;;2.88;65.17;99105.09;104911;1271;74445;-28
2022/04/15 01:04:22;;;;;;;38.80;15.00;;;;;;;2.69;65.93;99098.96;105013;1271;61060;-27
2022/04/15 01:06:51;;;;;;;37.40;14.40;;;;;;;2.49;66.39;99096.29;105129;1271;61133;-27
2022/04/15 01:09:20;;;;;;;29.50;12.50;;;;;;;2.29;67.14;99098.95;105147;1271;75696;-27
2022/04/15 01:11:51;;;;;;;25.80;11.70;;;;;;;2.11;68.02;99099.58;104934;1271;74770;-27
2022/04/15 01:14:21;;;;;;;26.70;12.70;;;;;;;2.00;68.62;99098.73;105149;1271;74593;-27
2022/04/15 01:16:50;;;;;;;34.70;13.80;;;;;;;1.98;68.36;99095.54;105330;1271;61270;-27
2022/04/15 01:19:19;;;;;;;22.20;8.40;;;;;;;2.11;67.95;99095.30;105345;1270;62297;-27
2022/04/15 01:21:48;;;;;;;30.70;12.70;;;;;;;2.76;67.47;99088.68;105140;1271;75582;-27
2022/04/15 01:24:19;;;;;;;29.20;11.10;;;;;;;3.34;65.57;99091.98;105141;1271;75796;-27
2022/04/15 01:26:48;;;;;;;27.10;11.10;;;;;;;3.44;64.84;99091.67;105280;1271;74671;-27
2022/04/15 01:29:17;;;;;;;26.40;11.10;;;;;;;3.31;64.69;99091.98;105130;1271;61109;-27
2022/04/15 01:31:46;;;;;;;24.40;10.20;;;;;;;3.07;65.13;99086.32;105279;1270;61025;-27
2022/04/15 01:36:36;;;;;;;22.70;9.50;;;;;;;2.67;66.09;99085.51;101564;1309;600978;-28
2022/04/15 01:39:05;;;;;;;23.90;10.00;;;;;;;2.49;66.35;99085.14;104201;1284;61134;-28
2022/04/15 01:41:38;;;;;;;21.10;10.60;;;;;;;2.36;66.72;99078.92;103985;1284;61117;-28
2022/04/15 01:44:08;;;;;;;32.50;12.60;;;;;;;2.22;67.30;99076.63;103737;1286;73968;-27
2022/04/15 01:46:36;;;;;;;25.70;12.50;;;;;;;2.12;67.39;99078.84;104201;1285;76078;-25
2022/04/15 01:49:05;;;;;;;23.40;12.20;;;;;;;2.04;67.55;99076.77;103982;1284;398517;-27
2022/04/15 01:51:35;;;;;;;21.70;11.50;;;;;;;2.01;67.30;99074.02;103980;1284;61071;-26
2022/04/15 01:54:03;;;;;;;19.80;8.70;;;;;;;2.01;67.28;99069.02;104456;1283;62292;-27
2022/04/15 01:56:33;;;;;;;26.50;11.10;;;;;;;2.59;66.85;99066.33;104420;1283;74943;-27
2022/04/15 01:59:04;;;;;;;28.10;11.10;;;;;;;3.20;65.36;99066.45;104459;1282;76061;-27
2022/04/15 02:01:32;;;;;;;25.10;11.20;;;;;;;3.28;64.51;99058.52;104463;1283;73187;-27
2022/04/15 02:04:02;;;;;;;20.40;11.50;;;;;;;3.16;64.27;99059.10;104471;1283;61141;-27
2022/04/15 02:06:31;;;;;;;21.80;9.70;;;;;;;3.03;63.96;99056.52;104778;1274;61130;-28
2022/04/15 02:09:01;;;;;;;18.30;9.80;;;;;;;2.95;63.84;99051.23;104649;1273;75441;-27
2022/04/15 02:11:49;;;;;;;26.00;10.50;;;;;;;2.83;63.82;99047.52;104766;1273;76507;-27
2022/04/15 02:14:18;;;;;;;27.80;12.20;;;;;;;2.76;63.71;99049.24;104691;1274;74585;-27
2022/04/15 02:17:07;;;;;;;34.40;10.40;;;;;;;2.76;63.68;99047.68;104824;1273;62267;-27
2022/04/15 02:19:35;;;;;;;27.40;10.80;;;;;;;2.75;63.48;99048.61;105025;1272;61479;-27
2022/04/15 02:22:04;;;;;;;29.10;13.60;;;;;;;2.63;63.89;99045.58;104641;1274;72618;-27
2022/04/15 02:24:33;;;;;;;23.80;10.40;;;;;;;2.49;64.29;99043.00;104835;1273;75791;-27
2022/04/15 02:27:03;;;;;;;25.00;11.60;;;;;;;2.33;64.75;99039.97;105040;1273;74447;-27
2022/04/15 02:29:32;;;;;;;23.70;9.90;;;;;;;2.21;65.41;99036.27;104738;1274;61248;-27
2022/04/15 02:32:01;;;;;;;27.50;10.40;;;;;;;2.11;65.43;99030.74;104994;1273;62017;-27
2022/04/15 02:34:30;;;;;;;22.90;10.10;;;;;;;2.04;66.01;99028.14;104679;1273;74534;-27
2022/04/15 02:36:59;;;;;;;27.30;11.80;;;;;;;1.95;66.21;99024.45;104923;1273;75996;-27
2022/04/15 02:39:27;;;;;;;18.00;7.40;;;;;;;1.84;67.08;99022.02;104655;1273;74402;-27
2022/04/15 02:41:56;;;;;;;30.20;11.00;;;;;;;2.32;66.65;99018.80;104979;1273;61121;-27
2022/04/15 02:44:25;;;;;;;33.50;10.90;;;;;;;2.83;65.39;99020.41;104660;1273;62219;-27
2022/04/15 02:46:54;;;;;;;28.30;9.40;;;;;;;2.92;64.76;99018.11;104633;1273;74844;-26
2022/04/15 02:49:37;;;;;;;21.60;9.80;;;;;;;2.76;64.82;99018.52;104807;1273;77749;-27
2022/04/15 02:52:06;;;;;;;24.30;9.60;;;;;;;2.56;65.21;99021.95;104619;1273;72378;-26
2022/04/15 02:54:36;;;;;;;27.80;10.90;;;;;;;2.34;65.86;99021.27;104588;1274;61013;-27
2022/04/15 02:57:05;;;;;;;21.00;10.10;;;;;;;2.14;66.23;99014.33;104994;1273;62043;-27
2022/04/15 02:59:34;;;;;;;25.80;9.60;;;;;;;1.94;67.03;99015.23;104769;1274;76318;-26
2022/04/15 03:02:04;;;;;;;24.30;10.30;;;;;;;1.80;67.13;99015.36;104645;1274;76020;-26
2022/04/15 03:04:32;;;;;;;24.50;9.10;;;;;;;1.76;67.10;99012.14;104653;1273;74509;-27
2022/04/15 03:07:01;;;;;;;24.40;9.70;;;;;;;1.87;66.53;99012.30;104888;1273;61179;-26
2022/04/15 03:09:30;;;;;;;21.90;8.40;;;;;;;1.98;66.22;99012.67;104869;1273;62254;-26
2022/04/15 03:11:59;;;;;;;31.70;11.50;;;;;;;2.01;65.76;99013.72;104624;1274;73959;-26
2022/04/15 03:14:28;;;;;;;15.20;6.50;;;;;;;2.16;65.24;99012.85;104634;1273;76072;-26
2022/04/15 03:16:56;;;;;;;31.80;9.90;;;;;;;2.93;63.26;99014.25;104621;1274;73212;-27
2022/04/15 03:19:25;;;;;;;25.60;9.40;;;;;;;3.60;61.20;99016.52;104700;1273;61893;-26
2022/04/15 03:21:54;;;;;;;25.00;9.50;;;;;;;3.77;60.22;99019.21;104612;1273;61828;-27
2022/04/15 03:24:22;;;;;;;28.10;9.70;;;;;;;3.69;60.24;99014.84;104806;1273;74697;-27
2022/04/15 03:26:52;;;;;;;23.50;9.70;;;;;;;3.54;60.31;99014.08;104783;1273;76019;-27
2022/04/15 03:29:21;;;;;;;22.70;10.50;;;;;;;3.38;60.55;99014.40;104781;1273;74180;-27
2022/04/15 03:31:50;;;;;;;21.80;9.70;;;;;;;3.19;61.25;99022.58;104616;1273;61257;-27
2022/04/15 03:34:19;;;;;;;22.10;8.40;;;;;;;3.01;61.45;99020.92;104677;1273;61837;-27
2022/04/15 03:36:48;;;;;;;21.60;8.30;;;;;;;2.90;61.66;99013.89;104598;1273;74699;-27
2022/04/15 03:39:17;;;;;;;15.90;7.80;;;;;;;2.92;61.58;99011.42;104833;1273;75772;-27
2022/04/15 03:41:46;;;;;;;28.90;7.50;;;;;;;2.93;61.64;99013.25;105033;1273;74451;-27
2022/04/15 03:44:15;;;;;;;21.30;8.10;;;;;;;2.98;61.47;99010.95;104643;1273;61216;-27
2022/04/15 03:46:44;;;;;;;18.00;7.90;;;;;;;3.01;61.49;99008.06;104601;1274;62057;-27
2022/04/15 03:49:12;;;;;;;18.60;9.20;;;;;;;2.97;61.72;99010.13;104745;1273;74452;-27
2022/04/15 03:51:50;;;;;;;29.50;9.70;;;;;;;2.94;61.92;99011.64;104630;1274;75893;-27
2022/04/15 03:54:19;;;;;;;26.60;10.00;;;;;;;2.91;62.75;99010.41;105044;1273;73352;-27
2022/04/15 03:56:47;;;;;;;25.20;10.90;;;;;;;2.86;63.15;99008.30;104682;1273;61214;-27
2022/04/15 03:59:17;;;;;;;15.00;7.80;;;;;;;2.82;63.75;99004.67;104937;1273;61036;-27
2022/04/15 04:01:46;;;;;;;28.80;10.20;;;;;;;2.78;64.49;99000.29;105019;1273;74706;-27
2022/04/15 04:04:15;;;;;;;30.50;10.80;;;;;;;2.72;64.88;99000.04;105014;1273;74970;-27
2022/04/15 04:07:03;;;;;;;33.40;10.00;;;;;;;2.73;65.69;98999.67;104944;1273;75838;-27
2022/04/15 04:09:32;;;;;;;28.70;10.50;;;;;;;3.39;65.25;99001.46;104952;1273;61297;-27
2022/04/15 04:12:15;;;;;;;26.90;11.00;;;;;;;4.01;63.77;98998.70;104686;1273;62197;-27
2022/04/15 04:14:45;;;;;;;23.60;9.30;;;;;;;4.19;63.09;99002.84;104977;1273;74894;-27
2022/04/15 04:17:14;;;;;;;24.50;10.70;;;;;;;4.20;62.42;99001.60;104872;1273;76152;-27
2022/04/15 04:19:43;;;;;;;24.60;11.40;;;;;;;4.17;61.94;99001.08;104633;1273;74372;-27
2022/04/15 04:22:18;;;;;;;26.20;11.10;;;;;;;4.18;61.19;98999.31;104653;1273;61503;-27
2022/04/15 04:24:46;;;;;;;20.10;8.10;;;;;;;4.28;60.30;98999.43;104842;1273;61010;-27
2022/04/15 04:27:17;;;;;;;23.70;9.10;;;;;;;4.50;59.50;98997.34;104708;1273;74387;-27
2022/04/15 04:29:47;;;;;;;18.40;6.70;;;;;;;4.70;59.41;98995.52;104624;1273;74454;-27
2022/04/15 04:32:17;;;;;;;16.00;7.20;;;;;;;4.89;58.46;98989.27;104622;1273;73591;-27
2022/04/15 04:34:45;;;;;;;15.60;6.50;;;;;;;5.02;58.77;98989.17;104579;1273;61127;-27
2022/04/15 04:37:34;;;;;;;13.70;6.90;;;;;;;5.16;58.38;98987.51;104753;1273;63053;-27
2022/04/15 04:40:03;;;;;;;14.40;6.90;;;;;;;5.26;57.64;98988.10;104850;1273;74946;-27
2022/04/15 04:42:32;;;;;;;10.70;7.00;;;;;;;5.41;57.64;98983.43;104843;1273;75990;-25
2022/04/15 04:45:01;;;;;;;20.10;8.80;;;;;;;5.58;56.26;98984.59;105005;1273;72901;-26
2022/04/15 04:47:30;;;;;;;14.10;6.80;;;;;;;5.77;57.28;98979.52;104881;1273;61244;-25
2022/04/15 04:50:01;;;;;;;14.90;7.10;;;;;;;5.95;57.76;98983.91;104735;1274;61093;-25
2022/04/15 04:52:32;;;;;;;20.50;6.50;;;;;;;6.13;57.53;98986.41;104731;1273;74836;-25
2022/04/15 04:55:02;;;;;;;16.40;7.30;;;;;;;6.29;56.75;98984.88;104647;1273;76071;-25
2022/04/15 04:57:31;;;;;;;9.30;5.40;;;;;;;6.41;55.23;98985.14;104629;1273;74205;-26
2022/04/15 04:59:59;;;;;;;10.40;5.50;;;;;;;6.52;54.77;98983.58;104627;1272;61543;-25
2022/04/15 05:02:28;;;;;;;14.20;6.50;;;;;;;6.72;54.62;98985.54;104646;1273;61058;-25
2022/04/15 05:04:58;;;;;;;12.30;4.60;;;;;;;6.89;53.29;98985.98;104671;1273;74790;-27
2022/04/15 05:07:27;;;;;;;13.80;6.70;;;;;;;6.98;52.45;98988.15;104741;1273;74536;-25
2022/04/15 05:10:15;;;;;;;14.00;7.00;;;;;;;7.18;51.51;98990.23;104769;1273;75471;-25
2022/04/15 05:12:45;;;;;;;9.60;5.00;;;;;;;7.30;50.73;98987.52;104638;1273;61033;-25
2022/04/15 05:15:14;;;;;;;16.20;6.30;;;;;;;7.40;50.36;98980.61;104661;1273;62297;-26
2022/04/15 05:17:44;;;;;;;22.60;6.50;;;;;;;7.46;50.09;98986.42;104726;1273;73742;-25
2022/04/15 05:20:13;;;;;;;17.70;8.80;;;;;;;7.54;50.30;98981.89;105008;1273;76063;-26
2022/04/15 05:23:00;;;;;;;18.70;8.90;;;;;;;7.73;50.40;98979.90;104960;1273;74473;-25
2022/04/15 05:25:29;;;;;;;15.90;7.00;;;;;;;7.94;50.19;98979.27;104997;1273;61074;-25
2022/04/15 05:28:02;;;;;;;24.20;9.90;;;;;;;8.10;50.07;98977.06;104986;1273;61050;-26
2022/04/15 05:30:31;;;;;;;16.40;8.00;;;;;;;8.36;50.38;98976.41;104817;1273;73968;-26
2022/04/15 05:32:59;;;;;;;15.20;8.00;;;;;;;8.56;49.42;98977.90;104780;1274;76071;-27
2022/04/15 05:35:28;;;;;;;16.30;8.30;;;;;;;8.74;49.32;98973.47;105003;1273;74888;-28
2022/04/15 05:37:57;;;;;;;11.00;5.40;;;;;;;8.89;49.21;98971.49;104998;1273;61885;-28
2022/04/15 05:40:27;;;;;;;12.30;5.80;;;;;;;9.05;48.28;98972.41;104885;1273;61111;-27
2022/04/15 05:42:56;;;;;;;8.80;5.70;;;;;;;9.17;48.14;98964.58;104799;1273;74762;-25
2022/04/15 05:45:25;;;;;;;11.50;5.10;;;;;;;9.30;47.53;98964.25;104623;1273;75924;-25
2022/04/15 05:47:57;;;;;;;13.40;7.00;;;;;;;9.43;46.58;98964.33;104595;1273;74139;-27
2022/04/15 05:50:26;;;;;;;16.30;6.90;;;;;;;9.59;47.17;98965.47;104895;1273;61143;-25
2022/04/15 05:52:54;;;;;;;17.20;6.60;;;;;;;9.76;46.14;98965.20;104812;1273;61192;-25
2022/04/15 05:55:23;;;;;;;15.50;6.40;;;;;;;9.95;44.75;98961.60;104867;1273;74426;-25
2022/04/15 05:57:53;;;;;;;13.50;6.30;;;;;;;10.10;43.97;98962.30;104895;1273;76201;-26
2022/04/15 06:00:22;;;;;;;10.30;6.10;;;;;;;10.28;43.99;98964.14;104630;1273;74508;-25
2022/04/15 06:02:51;;;;;;;11.50;6.40;;;;;;;10.48;44.33;98959.77;104742;1273;62054;-25
2022/04/15 06:05:29;;;;;;;13.30;6.60;;;;;;;10.69;44.34;98954.78;104607;1273;61974;-25
2022/04/15 06:07:57;;;;;;;13.20;6.00;;;;;;;10.93;43.54;98954.36;104764;1273;74457;-25
2022/04/15 06:10:46;;;;;;;8.00;4.60;;;;;;;11.18;42.03;98949.14;104764;1273;77283;-25
2022/04/15 06:13:22;;;;;;;11.20;5.20;;;;;;;11.36;41.53;98951.08;104913;1273;74785;-25
2022/04/15 06:16:11;;;;;;;10.20;5.20;;;;;;;11.50;41.01;98947.94;104903;1273;63293;-25
2022/04/15 06:18:42;;;;;;;11.70;5.50;;;;;;;11.72;40.77;98949.13;104969;1273;61138;-25
2022/04/15 06:21:31;;;;;;;10.80;5.30;;;;;;;12.00;40.77;98946.36;104970;1272;75668;-25
2022/04/15 06:24:25;;;;;;;10.40;5.10;;;;;;;12.28;40.80;98942.89;104849;1273;75071;-25
2022/04/15 06:26:53;;;;;;;;;;;;;;;12.61;40.69;98942.02;104999;1273;74472;-26
2022/04/15 06:29:22;;;;;;;10.50;5.20;;;;;;;12.83;39.91;98934.98;104984;1273;61118;-25
2022/04/15 06:31:52;;;;;;;10.50;5.80;;;;;;;13.10;38.88;98935.95;104883;1274;61151;-25
2022/04/15 06:34:21;;;;;;;11.10;4.60;;;;;;;13.35;37.97;98933.11;104974;1273;75478;-26
2022/04/15 06:36:50;;;;;;;13.10;4.80;;;;;;;13.47;35.77;98929.33;104923;1273;75810;-25
2022/04/15 06:39:19;;;;;;;23.70;5.80;;;;;;;13.59;34.88;98926.64;104954;1273;74368;-26
2022/04/15 06:41:47;;;;;;;14.50;5.10;;;;;;;13.74;35.16;98922.91;104993;1273;61070;-25
2022/04/15 06:44:21;;;;;;;;;;;;;;;13.94;34.86;98919.01;104813;1274;61933;-26
2022/04/15 06:46:50;;;;;;;7.30;3.50;;;;;;;14.00;34.14;98914.13;105007;1273;75529;-26
2022/04/15 06:49:18;;;;;;;7.50;3.60;;;;;;;14.20;34.86;98911.53;104820;1273;75905;-24
2022/04/15 06:51:48;;;;;;;9.60;4.00;;;;;;;14.32;33.62;98910.48;104741;1273;74355;-26
2022/04/15 06:54:16;;;;;;;8.40;4.80;;;;;;;14.46;34.56;98911.04;105043;1273;61974;-23
2022/04/15 06:56:45;;;;;;;7.10;3.80;;;;;;;14.69;34.19;98900.90;104902;1273;62031;-24
2022/04/15 06:59:18;;;;;;;6.30;3.90;;;;;;;14.98;33.42;98899.76;104873;1272;75521;-23
2022/04/15 07:01:47;;;;;;;7.00;3.80;;;;;;;15.19;32.05;98896.95;104772;1273;76316;-28
2022/04/15 07:04:16;;;;;;;9.10;4.20;;;;;;;15.24;31.36;98896.80;104779;1273;74478;-23
2022/04/15 07:06:45;;;;;;;7.60;4.10;;;;;;;15.29;31.61;98893.96;105017;1273;61131;-24
2022/04/15 07:09:14;;;;;;;7.70;4.10;;;;;;;15.28;30.95;98890.06;104993;1273;61102;-24
2022/04/15 07:11:47;;;;;;;9.00;4.40;;;;;;;15.45;29.42;98889.91;104774;1273;73949;-24
2022/04/15 07:14:17;;;;;;;6.20;3.50;;;;;;;15.51;29.58;98891.72;104790;1274;76021;-31
2022/04/15 07:16:45;;;;;;;4.00;2.80;;;;;;;15.60;28.54;98889.92;104755;1273;72943;-23
2022/04/15 07:19:14;;;;;;;8.40;3.70;;;;;;;15.63;28.09;98885.02;104884;1273;62089;-24
2022/04/15 07:21:44;;;;;;;5.10;2.70;;;;;;;15.76;27.89;98886.64;104951;1272;62032;-25
2022/04/15 07:24:13;;;;;;;5.80;3.20;;;;;;;15.86;27.77;98881.23;104846;1274;75586;-24
2022/04/15 07:26:42;;;;;;;8.80;4.10;;;;;;;15.91;27.92;98882.35;105005;1273;76111;-24
2022/04/15 07:29:10;;;;;;;5.30;2.60;;;;;;;15.95;28.58;98880.71;104730;1274;74358;-25
2022/04/15 07:31:42;;;;;;;4.60;2.60;;;;;;;16.07;27.74;98882.35;104959;1273;62816;-25
2022/04/15 07:34:10;;;;;;;9.20;4.20;;;;;;;16.22;27.76;98881.02;104615;1273;60985;-22
2022/04/15 07:39:11;;;;;;;6.50;3.60;;;;;;;16.55;27.35;98875.68;104659;1273;75835;-22
2022/04/15 07:41:40;;;;;;;13.50;4.90;;;;;;;16.74;27.03;98877.08;104588;1274;73406;-23
2022/04/15 07:44:09;;;;;;;9.40;4.30;;;;;;;16.77;26.76;98873.13;104780;1273;62075;-24
2022/04/15 07:46:41;;;;;;;6.50;3.10;;;;;;;16.87;27.88;98872.88;104606;1273;61967;-23
2022/04/15 07:49:09;;;;;;;4.90;2.80;;;;;;;17.02;27.01;98869.98;104649;1273;75778;-27
2022/04/15 07:51:38;;;;;;;5.40;3.10;;;;;;;17.12;26.61;98866.46;104696;1273;76079;-24
2022/04/15 07:54:07;;;;;;;4.70;2.90;;;;;;;17.18;27.60;98870.15;104708;1273;72759;-32
2022/04/15 07:56:36;;;;;;;9.40;3.70;;;;;;;17.25;26.48;98865.09;104697;1272;62459;-26
2022/04/15 07:59:07;;;;;;;7.10;3.90;;;;;;;17.32;25.76;98872.44;104708;1273;62084;-25
2022/04/15 08:01:38;;;;;;;7.50;3.30;;;;;;;17.53;25.72;98865.73;104598;1274;74579;-25
2022/04/15 08:04:07;;;;;;;6.80;3.10;;;;;;;17.50;25.30;98860.33;104952;1273;75914;-23
2022/04/15 08:06:37;;;;;;;6.00;3.40;;;;;;;17.55;25.03;98858.68;105026;1273;73167;-23
2022/04/15 08:09:25;;;;;;;4.00;2.20;;;;;;;17.75;25.13;98847.48;104835;1273;63263;-23
2022/04/15 08:11:54;;;;;;;5.20;2.60;;;;;;;17.76;25.19;98850.02;104768;1273;61263;-24
2022/04/15 08:14:24;;;;;;;6.20;3.20;;;;;;;18.05;25.25;98846.49;104626;1273;75601;-24
2022/04/15 08:16:54;;;;;;;5.50;3.60;;;;;;;18.23;24.98;98842.55;104569;1273;75662;-24
2022/04/15 08:19:24;;;;;;;6.80;2.60;;;;;;;18.36;24.58;98843.20;104607;1273;74216;-27
2022/04/15 08:21:54;;;;;;;5.70;2.90;;;;;;;18.46;25.08;98840.88;104586;1274;61792;-23
2022/04/15 08:24:22;;;;;;;4.70;2.80;;;;;;;18.58;24.74;98839.67;104955;1273;62300;-31
2022/04/15 08:26:56;;;;;;;7.80;3.00;;;;;;;18.64;23.96;98839.22;104816;1273;74867;-25
2022/04/15 08:29:39;;;;;;;7.40;3.10;;;;;;;18.70;23.46;98838.21;104820;1271;75958;-30
2022/04/15 08:32:08;;;;;;;7.00;2.90;;;;;;;18.79;23.47;98838.41;104926;1271;73420;-27
2022/04/15 08:34:36;;;;;;;9.70;3.00;;;;;;;19.10;23.40;98837.55;104999;1272;61185;-25
2022/04/15 08:37:06;;;;;;;7.20;2.70;;;;;;;19.41;23.35;98830.84;104792;1271;60922;-25
2022/04/15 08:39:34;;;;;;;8.20;2.70;;;;;;;19.26;23.25;98828.10;104660;1271;74707;-25
2022/04/15 08:42:04;;;;;;;9.50;3.10;;;;;;;19.23;22.17;98827.74;104757;1273;75284;-26
2022/04/15 08:44:33;;;;;;;7.90;3.10;;;;;;;19.44;23.38;98820.93;104646;1271;74209;-26
2022/04/15 08:47:02;;;;;;;7.30;3.30;;;;;;;19.66;22.44;98822.88;104835;1272;62151;-26
2022/04/15 08:49:31;;;;;;;7.40;3.40;;;;;;;19.78;22.03;98815.42;104774;1272;61121;-25
2022/04/15 08:52:00;;;;;;;4.90;2.90;;;;;;;19.94;21.90;98815.28;104857;1273;75361;-26
2022/04/15 08:54:28;;;;;;;6.60;3.30;;;;;;;20.17;22.13;98812.73;105005;1273;75941;-25
2022/04/15 08:56:57;;;;;;;7.50;3.50;;;;;;;20.47;21.87;98806.50;105115;1271;74421;-26
2022/04/15 08:59:28;;;;;;;8.40;3.60;;;;;;;20.06;20.59;98804.02;105100;1273;61137;-26
2022/04/15 09:01:56;;;;;;;9.20;3.20;;;;;;;20.12;20.85;98807.60;105053;1271;61945;-25
2022/04/15 09:04:25;;;;;;;7.00;3.00;;;;;;;20.34;21.01;98802.20;104856;1271;75190;-26
2022/04/15 09:06:55;;;;;;;7.30;3.40;;;;;;;20.32;20.26;98799.23;104807;1271;75227;-25
2022/04/15 09:09:43;;;;;;;9.80;3.90;;;;;;;20.63;20.78;98797.30;104954;1271;75519;-24
2022/04/15 09:12:15;;;;;;;7.90;3.60;;;;;;;20.52;20.41;98792.30;104796;1273;60988;-26
2022/04/15 09:15:07;;;;;;;9.70;3.60;;;;;;;20.63;20.94;98793.89;104811;1271;63164;-26
2022/04/15 09:17:49;;;;;;;7.40;3.50;;;;;;;20.63;20.67;98791.30;104894;1272;74329;-29
2022/04/15 09:20:38;;;;;;;7.90;3.70;;;;;;;20.56;20.16;98787.40;104907;1271;77164;-26
2022/04/15 09:23:10;;;;;;;6.00;3.40;;;;;;;20.79;20.00;98778.86;104776;1271;74367;-25
2022/04/15 09:25:39;;;;;;;6.30;3.80;;;;;;;20.95;20.02;98766.67;104700;1272;61427;-24
2022/04/15 09:28:08;;;;;;;6.40;3.20;;;;;;;21.02;19.60;98770.52;104985;1273;61654;-31
2022/04/15 09:30:43;;;;;;;9.00;3.20;;;;;;;21.04;19.87;98764.66;104787;1271;75538;-25
2022/04/15 09:33:12;;;;;;;10.70;4.00;;;;;;;20.79;20.31;98770.08;104808;1273;75037;-25
2022/04/15 09:35:49;;;;;;;6.90;3.40;;;;;;;21.06;20.07;98767.31;104633;1274;74464;-26
2022/04/15 09:38:18;;;;;;;8.30;3.80;;;;;;;21.05;19.92;98753.59;105009;1273;61771;-26
2022/04/15 09:40:47;;;;;;;7.50;3.70;;;;;;;21.19;19.28;98751.33;104889;1274;61059;-25
2022/04/15 09:43:15;;;;;;;6.90;3.40;;;;;;;21.35;19.46;98754.55;105047;1274;75532;-24
2022/04/15 09:45:44;;;;;;;6.50;2.80;;;;;;;21.61;20.24;98751.90;105079;1274;75966;-26
2022/04/15 09:48:12;;;;;;;5.40;3.50;;;;;;;21.46;20.38;98747.56;104909;1274;74858;-26
2022/04/15 09:50:43;;;;;;;10.80;3.80;;;;;;;21.32;19.76;98743.40;105040;1274;61111;-25
2022/04/15 09:53:33;;;;;;;8.10;4.30;;;;;;;21.17;19.29;98737.77;104891;1274;61489;-25
2022/04/15 09:56:01;;;;;;;8.50;3.50;;;;;;;21.18;19.28;98736.66;105083;1274;75620;-23
2022/04/15 09:58:31;;;;;;;9.50;3.50;;;;;;;21.31;18.51;98734.44;104837;1272;76474;-23
2022/04/15 10:01:02;;;;;;;8.20;3.90;;;;;;;21.23;18.81;98729.05;104901;1274;74416;-25
2022/04/15 10:03:31;;;;;;;8.80;3.70;;;;;;;21.44;19.43;98724.88;104759;1274;61182;-24
2022/04/15 10:06:01;;;;;;;9.70;3.30;;;;;;;21.88;19.11;98722.28;104925;1274;61029;-24
2022/04/15 10:08:50;;;;;;;8.40;3.40;;;;;;;21.97;18.11;98721.87;105039;1274;75520;-26
2022/04/15 10:11:19;;;;;;;6.80;3.70;;;;;;;21.56;18.13;98714.33;104778;1272;76511;-26
2022/04/15 10:13:51;;;;;;;6.80;2.80;;;;;;;21.47;19.01;98710.56;104772;1274;74225;-24
2022/04/15 10:16:20;;;;;;;9.70;3.50;;;;;;;21.18;19.07;98707.95;104828;1274;61030;-26
2022/04/15 10:19:10;;;;;;;6.70;3.90;;;;;;;21.40;18.94;98702.87;104785;1271;62463;-24
2022/04/15 10:21:41;;;;;;;9.90;3.60;;;;;;;21.60;19.03;98705.92;104717;1274;74503;-24
2022/04/15 10:24:29;;;;;;;6.20;3.50;;;;;;;21.77;19.04;98704.05;105098;1274;76122;-24
2022/04/15 10:27:02;;;;;;;12.60;4.30;;;;;;;21.85;18.80;98709.23;104928;1274;73166;-23
2022/04/15 10:29:32;;;;;;;5.30;3.30;;;;;;;21.83;18.21;98705.83;104822;1274;61087;-25
2022/04/15 10:32:12;;;;;;;12.70;4.40;;;;;;;21.96;18.91;98698.95;104844;1274;61116;-24
2022/04/15 10:34:46;;;;;;;4.10;3.10;;;;;;;21.66;18.87;98697.20;105133;1272;74310;-23
2022/04/15 10:37:17;;;;;;;6.40;3.40;;;;;;;21.67;19.11;98694.14;105091;1272;75975;-25
2022/04/15 10:39:47;;;;;;;5.60;3.60;;;;;;;21.79;18.67;98693.48;104972;1273;73438;-26
2022/04/15 10:42:19;;;;;;;16.20;4.20;;;;;;;21.73;18.72;98688.63;105009;1273;61816;-25
2022/04/15 10:44:48;;;;;;;13.80;5.70;;;;;;;21.56;19.10;98685.50;105010;1271;60955;-26
2022/04/15 10:47:19;;;;;;;7.80;3.80;;;;;;;21.60;19.15;98686.61;104742;1273;75542;-29
2022/04/15 10:50:04;;;;;;;4.60;2.80;;;;;;;21.93;19.09;98684.60;104814;1271;75931;-25
2022/04/15 10:52:34;;;;;;;5.60;3.90;;;;;;;21.70;19.21;98677.71;105075;1271;74336;-25
2022/04/15 10:55:08;;;;;;;5.20;2.90;;;;;;;21.82;18.79;98681.89;105016;1273;61073;-24
2022/04/15 10:57:43;;;;;;;11.90;3.70;;;;;;;21.94;19.05;98672.05;105119;1273;61682;-27
2022/04/15 11:03:02;;;;;;;9.80;4.10;;;;;;;22.42;18.67;98677.05;105120;1272;75971;-25
2022/04/15 11:05:41;;;;;;;7.70;4.80;;;;;;;22.44;19.33;98675.05;104799;1273;73292;-24
2022/04/15 11:08:15;;;;;;;10.30;3.80;;;;;;;22.57;18.61;98662.61;104963;1272;61285;-25
2022/04/15 11:11:01;;;;;;;5.60;4.10;;;;;;;21.98;18.86;98665.98;104735;1273;61179;-26
2022/04/15 11:13:39;;;;;;;8.60;3.50;;;;;;;22.28;18.94;98659.67;104893;1273;75604;-24
2022/04/15 11:16:10;;;;;;;7.50;3.60;;;;;;;22.43;18.81;98660.73;105135;1273;76082;-24
2022/04/15 11:18:43;;;;;;;8.10;4.60;;;;;;;21.89;18.97;98663.98;105023;1271;74286;-23
2022/04/15 11:21:19;;;;;;;6.20;3.40;;;;;;;22.09;19.31;98659.42;104998;1273;61090;-24
2022/04/15 11:23:55;;;;;;;6.80;4.50;;;;;;;21.96;18.77;98654.66;105096;1272;61103;-25
2022/04/15 11:26:27;;;;;;;14.10;5.00;;;;;;;21.42;19.23;98656.29;105164;1271;75567;-26
2022/04/15 11:28:57;;;;;;;15.50;10.90;;;;;;;21.42;19.76;98645.17;105073;1271;76162;-25
2022/04/15 11:31:36;;;;;;;49.90;27.70;;;;;;;21.31;19.84;98634.27;105089;1273;74583;-24
2022/04/15 11:34:10;;;;;;;31.10;16.80;;;;;;;21.15;19.87;98637.67;105092;1271;62051;-29
2022/04/15 11:36:41;;;;;;;26.90;14.50;;;;;;;21.24;20.05;98637.33;104944;1273;61860;-25
2022/04/15 11:39:29;;;;;;;98.90;52.60;;;;;;;21.09;19.92;98634.16;104878;1272;76553;-23
2022/04/15 11:42:00;;;;;;;10.00;4.70;;;;;;;21.53;20.21;98629.23;104926;1271;75797;-33
2022/04/15 11:44:30;;;;;;;17.30;7.80;;;;;;;21.82;20.03;98625.96;104890;1271;74483;-27
2022/04/15 11:49:49;;;;;;;8.30;3.40;;;;;;;22.37;19.66;98626.63;105122;1273;61064;-25
2022/04/15 11:52:23;;;;;;;9.10;7.30;;;;;;;22.42;18.87;98624.17;105143;1273;75558;-25